createdAt,value
2022-11-23T00:00:27.764Z,43.64
2022-11-23T00:01:30.929Z,44.84
2022-11-23T00:02:11.826Z,45.42
2022-11-23T00:02:51.943Z,46.00
2022-11-23T00:03:31.745Z,45.90
2022-11-23T00:04:22.778Z,45.55
2022-11-23T00:05:16.793Z,44.86
2022-11-23T00:06:10.788Z,43.54
2022-11-23T00:07:04.836Z,42.53
2022-11-23T00:07:58.775Z,41.88
2022-11-23T00:08:53.854Z,41.74
2022-11-23T00:09:40.791Z,42.40
2022-11-23T00:10:14.798Z,42.92
2022-11-23T00:11:05.782Z,43.96
2022-11-23T00:11:41.818Z,40.91
2022-11-23T00:12:28.783Z,40.01
2022-11-23T00:13:02.983Z,40.53
2022-11-23T00:13:50.767Z,40.58
2022-11-23T00:14:24.798Z,41.16
2022-11-23T00:15:05.762Z,41.80
2022-11-23T00:15:47.905Z,39.89
2022-11-23T00:16:31.727Z,39.90
2022-11-23T00:17:11.806Z,42.51
2022-11-23T00:17:54.770Z,41.94
2022-11-23T00:18:34.806Z,39.72
2022-11-23T00:19:15.740Z,40.05
2022-11-23T00:19:55.880Z,38.99
2022-11-23T00:20:36.761Z,40.31
2022-11-23T00:21:22.853Z,40.92
2022-11-23T00:22:02.761Z,40.69
2022-11-23T00:22:44.088Z,39.04
2022-11-23T00:23:24.766Z,40.88
2022-11-23T00:24:04.845Z,41.04
2022-11-23T00:24:44.795Z,42.46
2022-11-23T00:25:25.851Z,42.28
2022-11-23T00:26:05.764Z,40.97
2022-11-23T00:26:45.776Z,41.09
2022-11-23T00:27:25.729Z,41.51
2022-11-23T00:28:05.855Z,41.11
2022-11-23T00:28:46.724Z,41.06
2022-11-23T00:29:27.344Z,41.25
2022-11-23T00:30:08.718Z,40.26
2022-11-23T00:30:49.146Z,41.08
2022-11-23T00:31:29.794Z,41.80
2022-11-23T00:32:10.799Z,42.39
2022-11-23T00:32:50.731Z,43.99
2022-11-23T00:33:30.862Z,44.36
2022-11-23T00:34:11.740Z,46.80
2022-11-23T00:34:53.899Z,47.79
2022-11-23T00:35:34.881Z,56.84
2022-11-23T00:36:21.862Z,62.81
2022-11-23T00:37:01.745Z,64.24
2022-11-23T00:37:41.985Z,75.53
2022-11-23T00:38:21.756Z,88.29
2022-11-23T00:39:03.025Z,84.34
2022-11-23T00:39:43.734Z,80.06
2022-11-23T00:40:24.115Z,74.26
2022-11-23T00:41:10.723Z,75.32
2022-11-23T00:41:50.843Z,72.60
2022-11-23T00:42:35.179Z,69.66
2022-11-23T00:43:17.814Z,69.35
2022-11-23T00:43:57.732Z,66.71
2022-11-23T00:44:37.912Z,63.59
2022-11-23T00:45:18.728Z,60.40
2022-11-23T00:46:14.823Z,55.51
2022-11-23T00:46:54.744Z,53.34
2022-11-23T00:47:41.759Z,51.64
2022-11-23T00:48:36.714Z,49.34
2022-11-23T00:49:32.027Z,47.11
2022-11-23T00:50:25.740Z,45.06
2022-11-23T00:51:23.742Z,44.83
2022-11-23T00:52:17.717Z,44.97
2022-11-23T00:53:04.783Z,44.09
2022-11-23T00:53:38.784Z,43.86
2022-11-23T00:54:25.715Z,44.16
2022-11-23T00:54:59.790Z,46.17
2022-11-23T00:55:46.708Z,45.86
2022-11-23T00:56:20.811Z,44.30
2022-11-23T00:57:07.716Z,45.10
2022-11-23T00:57:41.787Z,43.92
2022-11-23T00:58:28.747Z,44.91
2022-11-23T00:59:04.828Z,44.66
2022-11-23T00:59:51.711Z,43.40
2022-11-23T01:00:25.785Z,42.08
2022-11-23T01:01:21.736Z,42.88
2022-11-23T01:01:55.833Z,42.83
2022-11-23T01:02:42.692Z,43.94
2022-11-23T01:03:16.730Z,42.50
2022-11-23T01:04:01.732Z,43.83
2022-11-23T01:04:41.743Z,42.63
2022-11-23T01:05:21.699Z,42.29
2022-11-23T01:06:01.790Z,42.21
2022-11-23T01:06:46.696Z,40.88
2022-11-23T01:07:26.843Z,42.76
2022-11-23T01:08:06.684Z,42.26
2022-11-23T01:08:47.824Z,41.97
2022-11-23T01:09:31.975Z,42.81
2022-11-23T01:10:13.869Z,42.66
2022-11-23T01:10:54.720Z,43.00
2022-11-23T01:11:37.818Z,43.35
2022-11-23T01:12:18.696Z,42.84
2022-11-23T01:12:58.791Z,42.99
2022-11-23T01:13:39.687Z,43.90
2022-11-23T01:14:19.764Z,44.03
2022-11-23T01:15:00.729Z,42.80
2022-11-23T01:15:40.717Z,43.56
2022-11-23T01:16:32.701Z,43.70
2022-11-23T01:17:13.130Z,44.53
2022-11-23T01:17:53.689Z,44.79
2022-11-23T01:18:33.727Z,46.05
2022-11-23T01:19:18.690Z,44.96
2022-11-23T01:19:58.776Z,46.20
2022-11-23T01:20:38.709Z,46.33
2022-11-23T01:21:18.717Z,43.26
2022-11-23T01:21:59.671Z,43.10
2022-11-23T01:22:39.723Z,43.21
2022-11-23T01:23:19.682Z,43.22
2022-11-23T01:23:59.736Z,45.29
2022-11-23T01:24:39.684Z,44.39
2022-11-23T01:25:19.764Z,44.46
2022-11-23T01:25:59.715Z,44.53
2022-11-23T01:26:39.700Z,47.51
2022-11-23T01:27:20.658Z,46.00
2022-11-23T01:28:00.709Z,44.67
2022-11-23T01:28:41.668Z,42.39
2022-11-23T01:29:21.765Z,42.66
2022-11-23T01:30:01.717Z,44.40
2022-11-23T01:30:42.818Z,44.03
2022-11-23T01:31:29.702Z,43.91
2022-11-23T01:32:09.832Z,43.34
2022-11-23T01:32:50.664Z,41.99
2022-11-23T01:33:30.823Z,40.54
2022-11-23T01:34:10.680Z,41.99
2022-11-23T01:34:50.679Z,41.19
2022-11-23T01:35:30.653Z,41.56
2022-11-23T01:36:26.751Z,41.55
2022-11-23T01:37:07.707Z,40.80
2022-11-23T01:37:47.720Z,42.35
2022-11-23T01:38:28.726Z,41.84
2022-11-23T01:39:10.774Z,40.70
2022-11-23T01:39:50.657Z,39.15
2022-11-23T01:40:30.845Z,39.30
2022-11-23T01:41:13.671Z,40.90
2022-11-23T01:41:53.757Z,42.16
2022-11-23T01:43:03.722Z,39.97
2022-11-23T01:43:43.722Z,41.53
2022-11-23T01:44:44.720Z,44.34
2022-11-23T01:45:47.707Z,45.65
2022-11-23T01:46:27.648Z,45.28
2022-11-23T01:47:13.756Z,45.08
2022-11-23T01:47:54.640Z,44.45
2022-11-23T01:48:45.678Z,44.58
2022-11-23T01:49:19.710Z,45.80
2022-11-23T01:50:06.656Z,46.65
2022-11-23T01:50:40.721Z,46.22
2022-11-23T01:51:37.654Z,46.22
2022-11-23T01:52:28.772Z,45.96
2022-11-23T01:53:15.639Z,44.78
2022-11-23T01:53:56.679Z,45.50
2022-11-23T01:55:08.331Z,44.16
2022-11-23T01:56:03.650Z,44.85
2022-11-23T01:57:03.644Z,45.09
2022-11-23T01:57:58.644Z,44.22
2022-11-23T01:58:54.645Z,44.69
2022-11-23T01:59:35.672Z,44.66
2022-11-23T02:00:16.708Z,43.46
2022-11-23T02:00:57.684Z,43.29
2022-11-23T02:01:37.935Z,43.14
2022-11-23T02:02:18.662Z,42.30
2022-11-23T02:03:04.758Z,41.25
2022-11-23T02:03:45.655Z,40.60
2022-11-23T02:04:37.658Z,40.65
2022-11-23T02:05:12.675Z,40.24
2022-11-23T02:06:06.628Z,40.17
2022-11-23T02:06:40.667Z,40.28
2022-11-23T02:07:28.667Z,42.66
2022-11-23T02:08:02.695Z,42.31
2022-11-23T02:08:49.666Z,42.72
2022-11-23T02:09:23.675Z,42.89
2022-11-23T02:10:04.681Z,44.70
2022-11-23T02:10:44.753Z,45.10
2022-11-23T02:11:24.624Z,43.94
2022-11-23T02:12:05.839Z,43.54
2022-11-23T02:12:45.814Z,44.65
2022-11-23T02:13:25.699Z,44.78
2022-11-23T02:14:06.624Z,44.14
2022-11-23T02:14:48.868Z,44.22
2022-11-23T02:15:29.693Z,44.42
2022-11-23T02:16:09.677Z,43.81
2022-11-23T02:16:50.664Z,41.90
2022-11-23T02:17:30.668Z,43.13
2022-11-23T02:18:22.648Z,45.63
2022-11-23T02:19:02.889Z,46.85
2022-11-23T02:20:15.642Z,47.45
2022-11-23T02:20:56.636Z,47.63
2022-11-23T02:21:30.717Z,47.03
2022-11-23T02:22:43.644Z,47.59
2022-11-23T02:23:56.780Z,45.80
2022-11-23T02:24:53.628Z,46.81
2022-11-23T02:25:51.725Z,48.56
2022-11-23T02:26:40.627Z,46.86
2022-11-23T02:27:21.636Z,45.80
2022-11-23T02:28:01.689Z,46.31
2022-11-23T02:28:57.025Z,45.64
2022-11-23T02:29:37.616Z,46.19
2022-11-23T02:30:18.743Z,45.96
2022-11-23T02:31:01.608Z,45.14
2022-11-23T02:31:48.657Z,43.35
2022-11-23T02:32:43.670Z,42.66
2022-11-23T02:33:37.596Z,43.50
2022-11-23T02:34:32.652Z,44.79
2022-11-23T02:35:26.607Z,44.66
2022-11-23T02:36:58.647Z,44.95
2022-11-23T02:37:53.624Z,44.47
2022-11-23T02:38:47.610Z,44.78
2022-11-23T02:39:52.665Z,47.19
2022-11-23T02:40:49.661Z,48.96
2022-11-23T02:41:57.617Z,49.99
2022-11-23T02:42:38.617Z,49.47
2022-11-23T02:43:18.807Z,47.67
2022-11-23T02:44:03.613Z,48.33
2022-11-23T02:45:30.081Z,46.16
2022-11-23T02:46:10.607Z,46.36
2022-11-23T02:46:50.662Z,47.90
2022-11-23T02:47:31.614Z,47.67
2022-11-23T02:48:11.672Z,47.99
2022-11-23T02:48:51.601Z,48.86
2022-11-23T02:49:31.964Z,47.45
2022-11-23T02:50:12.607Z,47.04
2022-11-23T02:50:52.695Z,48.83
2022-11-23T02:51:32.572Z,48.33
2022-11-23T02:52:13.658Z,46.54
2022-11-23T02:52:53.601Z,46.84
2022-11-23T02:53:33.868Z,47.94
2022-11-23T02:54:14.621Z,46.76
2022-11-23T02:54:54.651Z,47.20
2022-11-23T02:55:35.592Z,46.63
2022-11-23T02:56:16.676Z,44.84
2022-11-23T02:56:56.600Z,44.58
2022-11-23T02:57:36.636Z,46.97
2022-11-23T02:58:17.629Z,46.67
2022-11-23T02:58:57.599Z,45.16
2022-11-23T02:59:38.559Z,44.65
2022-11-23T03:00:19.606Z,45.80
2022-11-23T03:00:59.634Z,45.09
2022-11-23T03:01:40.709Z,43.90
2022-11-23T03:02:20.617Z,42.91
2022-11-23T03:03:00.665Z,44.06
2022-11-23T03:03:40.617Z,43.26
2022-11-23T03:04:27.330Z,42.91
2022-11-23T03:05:08.720Z,42.97
2022-11-23T03:05:48.603Z,44.25
2022-11-23T03:06:28.557Z,45.25
2022-11-23T03:07:08.693Z,45.01
2022-11-23T03:07:48.645Z,42.67
2022-11-23T03:08:28.610Z,41.90
2022-11-23T03:09:08.607Z,44.79
2022-11-23T03:09:48.757Z,46.67
2022-11-23T03:10:29.598Z,46.29
2022-11-23T03:11:10.778Z,44.83
2022-11-23T03:11:51.637Z,44.28
2022-11-23T03:12:32.672Z,45.63
2022-11-23T03:13:12.578Z,43.59
2022-11-23T03:13:52.640Z,42.79
2022-11-23T03:14:33.614Z,45.13
2022-11-23T03:15:14.651Z,45.39
2022-11-23T03:15:54.576Z,45.53
2022-11-23T03:16:34.687Z,44.33
2022-11-23T03:17:14.539Z,44.40
2022-11-23T03:17:54.657Z,44.96
2022-11-23T03:18:35.569Z,43.19
2022-11-23T03:19:15.631Z,42.50
2022-11-23T03:19:56.566Z,42.88
2022-11-23T03:20:36.705Z,44.58
2022-11-23T03:21:17.581Z,44.08
2022-11-23T03:21:58.622Z,45.54
2022-11-23T03:22:39.557Z,45.65
2022-11-23T03:23:19.632Z,44.38
2022-11-23T03:24:01.579Z,44.35
2022-11-23T03:24:41.607Z,45.06
2022-11-23T03:25:22.575Z,44.44
2022-11-23T03:26:11.308Z,43.95
2022-11-23T03:26:52.558Z,43.78
2022-11-23T03:27:33.661Z,41.29
2022-11-23T03:28:14.566Z,42.39
2022-11-23T03:28:54.679Z,41.84
2022-11-23T03:29:34.739Z,42.28
2022-11-23T03:30:16.592Z,43.44
2022-11-23T03:30:57.564Z,44.13
2022-11-23T03:31:37.643Z,42.03
2022-11-23T03:32:18.535Z,41.76
2022-11-23T03:32:58.610Z,42.25
2022-11-23T03:33:39.640Z,42.75
2022-11-23T03:34:19.829Z,42.31
2022-11-23T03:34:59.537Z,40.91
2022-11-23T03:35:39.652Z,43.64
2022-11-23T03:36:19.578Z,42.81
2022-11-23T03:36:59.613Z,44.69
2022-11-23T03:37:40.544Z,44.81
2022-11-23T03:38:20.575Z,43.70
2022-11-23T03:39:00.526Z,42.91
2022-11-23T03:39:45.785Z,43.16
2022-11-23T03:40:27.527Z,43.31
2022-11-23T03:41:07.577Z,44.74
2022-11-23T03:41:47.686Z,46.51
2022-11-23T03:42:28.615Z,44.53
2022-11-23T03:43:09.519Z,43.47
2022-11-23T03:43:49.584Z,43.41
2022-11-23T03:44:30.531Z,45.51
2022-11-23T03:45:11.651Z,46.51
2022-11-23T03:45:52.525Z,45.76
2022-11-23T03:46:32.721Z,47.97
2022-11-23T03:47:19.547Z,45.46
2022-11-23T03:47:53.574Z,45.64
2022-11-23T03:48:40.526Z,48.10
2022-11-23T03:49:14.604Z,48.25
2022-11-23T03:50:01.510Z,46.58
2022-11-23T03:50:35.577Z,49.66
2022-11-23T03:51:22.513Z,48.76
2022-11-23T03:51:56.754Z,49.60
2022-11-23T03:52:43.564Z,48.16
2022-11-23T03:53:17.577Z,47.21
2022-11-23T03:54:04.560Z,46.61
2022-11-23T03:54:38.712Z,46.46
2022-11-23T03:55:26.555Z,45.80
2022-11-23T03:56:00.585Z,44.90
2022-11-23T03:56:47.528Z,46.34
2022-11-23T03:57:21.674Z,46.79
2022-11-23T03:58:09.543Z,46.56
2022-11-23T03:58:43.558Z,46.30
2022-11-23T03:59:30.777Z,45.59
2022-11-23T04:00:04.604Z,45.69
2022-11-23T04:00:51.659Z,45.56
2022-11-23T04:01:26.183Z,46.40
2022-11-23T04:02:14.524Z,46.10
2022-11-23T04:02:49.648Z,47.54
2022-11-23T04:03:29.571Z,47.41
2022-11-23T04:04:09.642Z,47.25
2022-11-23T04:04:49.510Z,46.16
2022-11-23T04:05:30.558Z,45.85
2022-11-23T04:06:11.521Z,45.39
2022-11-23T04:06:51.760Z,45.91
2022-11-23T04:07:31.588Z,45.76
2022-11-23T04:08:25.512Z,45.86
2022-11-23T04:09:05.525Z,44.54
2022-11-23T04:09:45.538Z,44.74
2022-11-23T04:10:26.518Z,45.50
2022-11-23T04:11:06.548Z,45.67
2022-11-23T04:11:46.482Z,46.51
2022-11-23T04:12:26.613Z,45.11
2022-11-23T04:13:06.521Z,44.91
2022-11-23T04:13:46.627Z,46.53
2022-11-23T04:14:26.522Z,47.64
2022-11-23T04:15:06.541Z,47.30
2022-11-23T04:15:47.579Z,46.16
2022-11-23T04:16:27.603Z,48.53
2022-11-23T04:17:08.523Z,50.24
2022-11-23T04:17:48.541Z,48.28
2022-11-23T04:18:29.471Z,48.09
2022-11-23T04:19:09.776Z,47.99
2022-11-23T04:19:49.506Z,47.20
2022-11-23T04:20:29.541Z,46.67
2022-11-23T04:21:09.483Z,46.71
2022-11-23T04:22:03.491Z,45.55
2022-11-23T04:22:57.478Z,46.24
2022-11-23T04:23:51.491Z,45.90
2022-11-23T04:24:45.478Z,46.71
2022-11-23T04:25:26.520Z,46.69
2022-11-23T04:26:06.607Z,46.83
2022-11-23T04:26:46.514Z,46.49
2022-11-23T04:27:26.519Z,48.06
2022-11-23T04:28:06.516Z,48.80
2022-11-23T04:28:46.585Z,46.60
2022-11-23T04:29:26.474Z,46.06
2022-11-23T04:30:06.617Z,48.20
2022-11-23T04:30:47.479Z,47.61
2022-11-23T04:31:27.526Z,46.75
2022-11-23T04:32:07.509Z,47.15
2022-11-23T04:32:47.586Z,48.71
2022-11-23T04:33:27.481Z,50.10
2022-11-23T04:34:07.723Z,47.63
2022-11-23T04:34:48.483Z,47.96
2022-11-23T04:35:28.523Z,47.74
2022-11-23T04:36:08.484Z,49.42
2022-11-23T04:36:48.516Z,47.78
2022-11-23T04:37:28.460Z,48.78
2022-11-23T04:38:08.536Z,51.44
2022-11-23T04:38:48.504Z,47.65
2022-11-23T04:39:28.555Z,46.70
2022-11-23T04:40:09.477Z,48.97
2022-11-23T04:40:50.808Z,47.31
2022-11-23T04:41:31.682Z,45.88
2022-11-23T04:42:12.577Z,46.95
2022-11-23T04:42:53.227Z,47.13
2022-11-23T04:43:33.503Z,46.76
2022-11-23T04:44:14.456Z,46.59
2022-11-23T04:44:55.005Z,46.71
2022-11-23T04:45:34.468Z,47.42
2022-11-23T04:46:15.536Z,47.42
2022-11-23T04:46:56.495Z,46.75
2022-11-23T04:47:36.578Z,48.10
2022-11-23T04:48:16.450Z,48.08
2022-11-23T04:48:56.539Z,46.43
2022-11-23T04:49:37.440Z,46.66
2022-11-23T04:50:17.516Z,47.11
2022-11-23T04:50:57.457Z,49.19
2022-11-23T04:51:37.573Z,49.16
2022-11-23T04:52:18.507Z,47.50
2022-11-23T04:52:58.497Z,47.76
2022-11-23T04:53:39.484Z,48.88
2022-11-23T04:54:19.498Z,48.91
2022-11-23T04:54:59.499Z,48.45
2022-11-23T04:55:39.503Z,49.14
2022-11-23T04:56:19.444Z,50.09
2022-11-23T04:56:59.707Z,49.29
2022-11-23T04:57:39.451Z,48.50
2022-11-23T04:58:19.516Z,47.81
2022-11-23T04:58:59.449Z,48.94
2022-11-23T04:59:39.616Z,50.10
2022-11-23T05:00:20.660Z,49.90
2022-11-23T05:01:01.622Z,48.90
2022-11-23T05:01:42.454Z,45.95
2022-11-23T05:02:22.662Z,47.11
2022-11-23T05:03:07.480Z,46.75
2022-11-23T05:03:47.595Z,48.76
2022-11-23T05:04:27.469Z,46.41
2022-11-23T05:05:07.533Z,47.40
2022-11-23T05:05:48.445Z,48.05
2022-11-23T05:06:28.556Z,45.94
2022-11-23T05:07:09.503Z,44.60
2022-11-23T05:07:49.541Z,44.66
2022-11-23T05:08:29.511Z,45.54
2022-11-23T05:09:09.472Z,44.70
2022-11-23T05:09:50.467Z,44.88
2022-11-23T05:10:31.528Z,45.24
2022-11-23T05:11:12.460Z,44.61
2022-11-23T05:11:52.611Z,43.03
2022-11-23T05:12:33.438Z,44.90
2022-11-23T05:13:13.504Z,44.99
2022-11-23T05:13:53.458Z,44.34
2022-11-23T05:14:33.474Z,44.51
2022-11-23T05:15:14.464Z,45.58
2022-11-23T05:15:54.467Z,44.69
2022-11-23T05:16:34.414Z,45.05
2022-11-23T05:17:14.526Z,44.42
2022-11-23T05:17:58.976Z,46.97
2022-11-23T05:18:39.471Z,46.26
2022-11-23T05:19:19.452Z,45.04
2022-11-23T05:19:59.618Z,43.72
2022-11-23T05:20:41.431Z,46.15
2022-11-23T05:21:21.726Z,45.45
2022-11-23T05:22:02.444Z,45.26
2022-11-23T05:22:42.464Z,46.66
2022-11-23T05:23:22.460Z,45.19
2022-11-23T05:24:02.493Z,43.79
2022-11-23T05:24:42.482Z,44.28
2022-11-23T05:25:22.454Z,45.88
2022-11-23T05:26:02.458Z,46.81
2022-11-23T05:26:42.459Z,47.00
2022-11-23T05:27:22.429Z,46.80
2022-11-23T05:28:16.648Z,46.70
2022-11-23T05:29:02.412Z,45.71
2022-11-23T05:29:50.432Z,43.74
2022-11-23T05:30:44.428Z,44.65
2022-11-23T05:31:38.443Z,45.38
2022-11-23T05:32:33.416Z,44.29
2022-11-23T05:33:28.451Z,44.94
2022-11-23T05:34:22.411Z,47.34
2022-11-23T05:35:10.441Z,46.20
2022-11-23T05:35:44.473Z,45.39
2022-11-23T05:36:31.414Z,44.72
2022-11-23T05:37:05.507Z,43.34
2022-11-23T05:37:52.427Z,45.19
2022-11-23T05:38:26.444Z,45.25
2022-11-23T05:39:14.417Z,45.79
2022-11-23T05:39:48.468Z,46.94
2022-11-23T05:40:35.448Z,45.95
2022-11-23T05:41:09.538Z,45.21
2022-11-23T05:41:57.433Z,44.72
2022-11-23T05:42:31.631Z,43.76
2022-11-23T05:43:18.484Z,46.35
2022-11-23T05:43:52.587Z,44.67
2022-11-23T05:44:40.412Z,45.11
2022-11-23T05:45:14.547Z,47.38
2022-11-23T05:45:54.448Z,46.29
2022-11-23T05:46:34.542Z,45.29
2022-11-23T05:47:14.386Z,47.29
2022-11-23T05:48:05.452Z,50.13
2022-11-23T05:48:46.399Z,47.89
2022-11-23T05:49:26.425Z,47.58
2022-11-23T05:50:06.408Z,47.42
2022-11-23T05:50:46.553Z,45.83
2022-11-23T05:51:26.444Z,45.91
2022-11-23T05:52:06.472Z,46.42
2022-11-23T05:52:46.447Z,47.71
2022-11-23T05:53:26.427Z,48.88
2022-11-23T05:54:08.415Z,48.45
2022-11-23T05:54:48.448Z,49.79
2022-11-23T05:55:28.397Z,52.01
2022-11-23T05:56:09.494Z,53.31
2022-11-23T05:56:50.437Z,54.92
2022-11-23T05:57:30.438Z,56.19
2022-11-23T05:58:11.383Z,53.17
2022-11-23T05:58:51.480Z,51.76
2022-11-23T05:59:31.749Z,52.45
2022-11-23T06:00:14.481Z,53.67
2022-11-23T06:00:54.383Z,53.08
2022-11-23T06:01:34.557Z,50.46
2022-11-23T06:02:15.397Z,51.69
2022-11-23T06:02:55.480Z,49.92
2022-11-23T06:03:35.496Z,50.83
2022-11-23T06:04:15.591Z,51.19
2022-11-23T06:04:55.404Z,50.71
2022-11-23T06:05:36.548Z,52.76
2022-11-23T06:06:17.386Z,51.59
2022-11-23T06:07:01.154Z,53.41
2022-11-23T06:07:42.449Z,52.60
2022-11-23T06:08:22.426Z,51.61
2022-11-23T06:09:02.357Z,51.19
2022-11-23T06:09:42.663Z,51.16
2022-11-23T06:10:22.387Z,53.16
2022-11-23T06:11:02.466Z,51.58
2022-11-23T06:11:43.411Z,51.30
2022-11-23T06:12:23.416Z,52.63
2022-11-23T06:13:10.423Z,52.21
2022-11-23T06:13:54.457Z,50.89
2022-11-23T06:14:34.355Z,51.29
2022-11-23T06:15:15.416Z,54.34
2022-11-23T06:15:56.394Z,55.00
2022-11-23T06:16:36.466Z,52.51
2022-11-23T06:17:16.384Z,50.66
2022-11-23T06:17:56.405Z,50.70
2022-11-23T06:18:36.392Z,53.28
2022-11-23T06:19:16.643Z,53.61
2022-11-23T06:19:57.368Z,53.71
2022-11-23T06:20:37.409Z,54.55
2022-11-23T06:21:17.391Z,55.97
2022-11-23T06:21:57.444Z,53.86
2022-11-23T06:22:38.424Z,52.97
2022-11-23T06:23:18.527Z,53.92
2022-11-23T06:23:59.398Z,52.80
2022-11-23T06:24:40.425Z,52.89
2022-11-23T06:25:21.378Z,55.05
2022-11-23T06:26:01.563Z,54.66
2022-11-23T06:26:42.383Z,53.91
2022-11-23T06:27:22.471Z,52.21
2022-11-23T06:28:06.365Z,50.56
2022-11-23T06:28:46.426Z,49.97
2022-11-23T06:29:27.371Z,49.74
2022-11-23T06:30:07.502Z,48.47
2022-11-23T06:30:48.388Z,48.90
2022-11-23T06:31:28.485Z,49.84
2022-11-23T06:32:09.366Z,48.84
2022-11-23T06:32:49.466Z,47.84
2022-11-23T06:33:29.356Z,49.71
2022-11-23T06:34:09.416Z,47.64
2022-11-23T06:34:50.385Z,48.03
2022-11-23T06:35:31.540Z,48.88
2022-11-23T06:36:12.372Z,47.34
2022-11-23T06:36:52.437Z,48.51
2022-11-23T06:37:32.359Z,49.19
2022-11-23T06:38:12.380Z,47.38
2022-11-23T06:38:52.360Z,49.61
2022-11-23T06:39:32.639Z,48.72
2022-11-23T06:40:13.383Z,47.34
2022-11-23T06:40:53.367Z,48.80
2022-11-23T06:41:33.340Z,47.55
2022-11-23T06:43:14.357Z,43.45
2022-11-23T06:43:54.393Z,43.38
2022-11-23T06:44:34.376Z,43.15
2022-11-23T06:45:22.359Z,43.03
2022-11-23T06:46:20.353Z,42.35
2022-11-23T06:47:17.677Z,42.49
2022-11-23T06:48:13.352Z,42.50
2022-11-23T06:49:07.405Z,43.26
2022-11-23T06:50:01.393Z,46.56
2022-11-23T06:50:41.356Z,50.63
2022-11-23T06:51:22.386Z,52.36
2022-11-23T06:52:02.377Z,51.17
2022-11-23T06:52:42.403Z,51.29
2022-11-23T06:53:23.344Z,51.06
2022-11-23T06:54:03.380Z,50.14
2022-11-23T06:54:43.324Z,53.21
2022-11-23T06:55:23.476Z,53.55
2022-11-23T06:56:07.376Z,53.24
2022-11-23T06:56:47.384Z,54.20
2022-11-23T06:57:27.357Z,52.76
2022-11-23T06:58:07.500Z,54.40
2022-11-23T06:58:49.310Z,54.59
2022-11-23T06:59:29.612Z,53.60
2022-11-23T07:00:11.371Z,50.91
2022-11-23T07:00:51.751Z,50.42
2022-11-23T07:01:31.453Z,48.53
2022-11-23T07:02:11.449Z,47.34
2022-11-23T07:02:59.353Z,48.14
2022-11-23T07:03:40.663Z,47.80
2022-11-23T07:04:20.345Z,47.97
2022-11-23T07:05:00.372Z,50.34
2022-11-23T07:05:40.332Z,50.03
2022-11-23T07:06:20.367Z,48.80
2022-11-23T07:07:00.341Z,50.49
2022-11-23T07:07:40.435Z,53.64
2022-11-23T07:08:21.348Z,55.38
2022-11-23T07:09:02.975Z,54.74
2022-11-23T07:09:44.336Z,55.70
2022-11-23T07:10:25.824Z,57.74
2022-11-23T07:11:13.321Z,56.01
2022-11-23T07:11:53.372Z,55.34
2022-11-23T07:12:34.360Z,53.92
2022-11-23T07:13:16.363Z,53.79
2022-11-23T07:13:56.311Z,53.97
2022-11-23T07:14:36.387Z,55.06
2022-11-23T07:15:17.319Z,55.78
2022-11-23T07:15:57.453Z,55.70
2022-11-23T07:16:37.339Z,55.61
2022-11-23T07:17:17.752Z,54.41
2022-11-23T07:17:57.372Z,60.25
2022-11-23T07:18:37.377Z,63.29
2022-11-23T07:19:18.321Z,61.92
2022-11-23T07:19:58.341Z,58.97
2022-11-23T07:20:38.299Z,56.61
2022-11-23T07:21:18.384Z,56.53
2022-11-23T07:21:59.377Z,55.41
2022-11-23T07:22:39.513Z,53.25
2022-11-23T07:23:19.343Z,53.64
2022-11-23T07:23:59.369Z,53.95
2022-11-23T07:24:43.952Z,53.38
2022-11-23T07:25:26.431Z,54.15
2022-11-23T07:26:09.309Z,55.55
2022-11-23T07:26:49.406Z,55.90
2022-11-23T07:27:30.329Z,53.80
2022-11-23T07:28:14.337Z,57.66
2022-11-23T07:28:54.336Z,56.94
2022-11-23T07:29:34.482Z,55.94
2022-11-23T07:30:16.344Z,55.63
2022-11-23T07:30:58.350Z,53.94
2022-11-23T07:31:39.293Z,53.96
2022-11-23T07:32:19.337Z,52.88
2022-11-23T07:33:00.287Z,52.56
2022-11-23T07:33:40.324Z,54.13
2022-11-23T07:34:20.342Z,53.15
2022-11-23T07:35:00.413Z,52.61
2022-11-23T07:35:42.303Z,54.28
2022-11-23T07:36:22.344Z,53.71
2022-11-23T07:37:03.311Z,53.76
2022-11-23T07:37:43.353Z,54.31
2022-11-23T07:38:23.303Z,52.19
2022-11-23T07:39:03.417Z,52.70
2022-11-23T07:39:56.991Z,52.29
2022-11-23T07:40:38.400Z,51.17
2022-11-23T07:41:18.330Z,53.14
2022-11-23T07:42:30.560Z,55.92
2022-11-23T07:42:58.289Z,56.65
2022-11-23T07:43:39.344Z,55.36
2022-11-23T07:44:19.304Z,56.36
2022-11-23T07:44:59.319Z,56.01
2022-11-23T07:45:34.401Z,62.67
2022-11-23T07:46:21.309Z,70.80
2022-11-23T07:46:55.361Z,70.76
2022-11-23T07:47:42.336Z,67.81
2022-11-23T07:48:17.403Z,66.39
2022-11-23T07:49:07.290Z,66.63
2022-11-23T07:49:41.357Z,66.14
2022-11-23T07:50:22.303Z,63.78
2022-11-23T07:51:02.358Z,63.92
2022-11-23T07:51:42.299Z,63.50
2022-11-23T07:52:22.542Z,63.70
2022-11-23T07:53:03.277Z,63.64
2022-11-23T07:53:43.329Z,63.47
2022-11-23T07:54:24.279Z,64.55
2022-11-23T07:55:04.352Z,64.11
2022-11-23T07:55:44.299Z,63.66
2022-11-23T07:56:24.346Z,62.35
2022-11-23T07:57:04.273Z,65.41
2022-11-23T07:57:44.311Z,65.15
2022-11-23T07:58:25.275Z,61.66
2022-11-23T07:59:05.385Z,59.30
2022-11-23T07:59:46.254Z,59.06
2022-11-23T08:00:30.361Z,60.13
2022-11-23T08:01:11.293Z,59.91
2022-11-23T08:01:57.032Z,59.88
2022-11-23T08:02:52.803Z,58.51
2022-11-23T08:03:40.380Z,57.76
2022-11-23T08:04:20.255Z,56.10
2022-11-23T08:05:00.320Z,56.38
2022-11-23T08:05:42.262Z,53.58
2022-11-23T08:06:30.310Z,54.49
2022-11-23T08:07:24.338Z,56.06
2022-11-23T08:08:19.296Z,57.81
2022-11-23T08:09:13.273Z,58.40
2022-11-23T08:10:07.274Z,58.41
2022-11-23T08:11:01.248Z,58.59
2022-11-23T08:11:49.276Z,57.78
2022-11-23T08:12:23.429Z,60.14
2022-11-23T08:13:12.295Z,60.90
2022-11-23T08:13:46.351Z,61.54
2022-11-23T08:14:33.500Z,65.35
2022-11-23T08:15:07.371Z,65.40
2022-11-23T08:15:55.685Z,63.33
2022-11-23T08:16:31.019Z,61.34
2022-11-23T08:17:12.287Z,61.79
2022-11-23T08:17:52.573Z,61.56
2022-11-23T08:18:33.252Z,58.86
2022-11-23T08:19:13.288Z,59.19
2022-11-23T08:19:53.280Z,58.71
2022-11-23T08:20:35.301Z,59.38
2022-11-23T08:21:15.271Z,60.17
2022-11-23T08:21:55.292Z,60.74
2022-11-23T08:22:35.316Z,62.34
2022-11-23T08:23:15.355Z,60.78
2022-11-23T08:23:55.253Z,57.81
2022-11-23T08:24:35.565Z,57.41
2022-11-23T08:25:16.244Z,58.30
2022-11-23T08:25:56.724Z,58.71
2022-11-23T08:26:37.270Z,58.61
2022-11-23T08:27:17.547Z,60.06
2022-11-23T08:28:11.270Z,57.97
2022-11-23T08:28:51.420Z,56.00
2022-11-23T08:29:31.265Z,56.76
2022-11-23T08:30:12.323Z,57.65
2022-11-23T08:30:53.258Z,56.39
2022-11-23T08:31:34.293Z,56.92
2022-11-23T08:32:15.249Z,56.36
2022-11-23T08:32:55.383Z,57.15
2022-11-23T08:33:35.275Z,59.28
2022-11-23T08:34:15.391Z,60.15
2022-11-23T08:34:55.240Z,58.94
2022-11-23T08:35:36.417Z,58.97
2022-11-23T08:36:17.268Z,56.31
2022-11-23T08:36:57.279Z,58.13
2022-11-23T08:37:37.225Z,58.15
2022-11-23T08:38:19.350Z,58.40
2022-11-23T08:39:01.267Z,58.21
2022-11-23T08:39:41.321Z,59.05
2022-11-23T08:40:25.397Z,60.80
2022-11-23T08:41:20.239Z,60.89
2022-11-23T08:42:14.260Z,61.26
2022-11-23T08:43:09.266Z,59.81
2022-11-23T08:44:04.251Z,58.01
2022-11-23T08:44:58.244Z,56.76
2022-11-23T08:45:52.244Z,54.64
2022-11-23T08:46:46.252Z,53.28
2022-11-23T08:47:40.243Z,54.05
2022-11-23T08:48:34.242Z,55.35
2022-11-23T08:49:21.253Z,55.69
2022-11-23T08:49:55.304Z,56.00
2022-11-23T08:50:43.219Z,55.90
2022-11-23T08:51:22.413Z,54.84
2022-11-23T08:52:09.271Z,53.67
2022-11-23T08:52:43.294Z,54.08
2022-11-23T08:53:30.250Z,54.17
2022-11-23T08:54:04.305Z,52.92
2022-11-23T08:54:44.245Z,51.53
2022-11-23T08:55:24.254Z,52.09
2022-11-23T08:56:08.217Z,50.22
2022-11-23T08:56:48.324Z,51.97
2022-11-23T08:57:29.216Z,52.83
2022-11-23T08:58:13.315Z,53.29
2022-11-23T08:58:54.250Z,54.90
2022-11-23T08:59:34.339Z,53.46
2022-11-23T09:00:16.246Z,50.94
2022-11-23T09:00:56.250Z,54.20
2022-11-23T09:01:36.292Z,52.26
2022-11-23T09:02:20.271Z,52.06
2022-11-23T09:03:01.218Z,52.81
2022-11-23T09:03:41.423Z,52.70
2022-11-23T09:04:21.210Z,54.25
2022-11-23T09:05:01.260Z,51.86
2022-11-23T09:05:45.236Z,51.97
2022-11-23T09:06:29.182Z,53.41
2022-11-23T09:07:10.250Z,51.89
2022-11-23T09:07:50.254Z,51.74
2022-11-23T09:08:30.195Z,50.72